Time;durP1;ratioP1;P1;durP2;ratioP2;P2;SDS_P1;SDS_P2;PMS_P1;PMS_P2;Temp;Humidity;BMP_temperature;BMP_pressure;BME280_temperature;BME280_humidity;BME280_pressure;Samples;Min_cycle;Max_cycle;Signal;HPM_P1;HPM_P2
2021/06/25 00:01:56;;;;;;;;;;;15.60;99.90;;;;;;5011041;28;19932;-66
2021/06/25 00:04:44;;;;;;;;;;;15.60;99.90;;;;;;5027753;28;19936;-66
2021/06/25 00:07:32;;;;;;;;;;;15.60;99.90;;;;;;5032178;28;20039;-65
2021/06/25 00:10:21;;;;;;;;;;;15.60;99.90;;;;;;5031468;28;20055;-66
2021/06/25 00:13:10;;;;;;;;;;;15.60;99.90;;;;;;5026097;28;20464;-66
2021/06/25 00:16:01;;;;;;;;;;;15.50;99.90;;;;;;5026438;28;19925;-65
2021/06/25 00:18:50;;;;;;;;;;;15.50;99.90;;;;;;5028716;28;19948;-65
2021/06/25 00:21:39;;;;;;;;;;;15.50;99.90;;;;;;5032530;28;20284;-66
2021/06/25 00:24:28;;;;;;;;;;;15.50;99.90;;;;;;5052130;28;19937;-67
2021/06/25 00:27:16;;;;;;;;;;;15.60;99.90;;;;;;5031359;28;19929;-68
2021/06/25 00:30:06;;;;;;;;;;;15.60;99.90;;;;;;5027488;28;19925;-66
2021/06/25 00:32:56;;;;;;;;;;;15.70;99.90;;;;;;5027933;28;19929;-67
2021/06/25 00:35:45;;;;;;;;;;;15.70;99.90;;;;;;5028235;28;20012;-66
2021/06/25 00:38:34;;;;;;;;;;;15.60;99.90;;;;;;5030218;28;20012;-66
2021/06/25 00:41:47;;;;;;;;;;;15.60;99.90;;;;;;5027417;28;19941;-66
2021/06/25 00:44:39;;;;;;;;;;;15.60;99.90;;;;;;5022952;28;20372;-66
2021/06/25 00:47:27;;;;;;;;;;;15.60;99.90;;;;;;5009637;28;19925;-66
2021/06/25 00:50:19;;;;;;;;;;;15.60;99.90;;;;;;5012592;28;19967;-65
2021/06/25 00:53:08;;;;;;;;;;;15.50;99.90;;;;;;5011623;28;19921;-66
2021/06/25 00:55:57;;;;;;;;;;;15.50;99.90;;;;;;5012455;28;20272;-65
2021/06/25 00:58:45;;;;;;;;;;;15.60;99.90;;;;;;4997998;28;20374;-66
2021/06/25 01:01:35;;;;;;;;;;;15.60;99.90;;;;;;5007222;28;19932;-65
2021/06/25 01:04:23;;;;;;;;;;;15.50;99.90;;;;;;5011539;28;20265;-65
2021/06/25 01:07:14;;;;;;;;;;;15.60;99.90;;;;;;5012002;28;20472;-67
2021/06/25 01:10:05;;;;;;;;;;;15.70;99.90;;;;;;5010935;28;20052;-66
2021/06/25 01:12:54;;;;;;;;;;;15.70;99.90;;;;;;5011062;28;19960;-65
2021/06/25 01:15:43;;;;;;;;;;;15.70;99.90;;;;;;5003906;28;19922;-65
2021/06/25 01:18:31;;;;;;;;;;;15.60;99.90;;;;;;5011190;28;19925;-65
2021/06/25 01:21:24;;;;;;;;;;;15.60;99.90;;;;;;5012589;28;19922;-65
2021/06/25 01:24:13;;;;;;;;;;;15.60;99.90;;;;;;5013078;28;19921;-66
2021/06/25 01:27:01;;;;;;;;;;;15.60;99.90;;;;;;5012998;28;20319;-66
2021/06/25 01:29:50;;;;;;;;;;;15.50;99.90;;;;;;5013206;28;19921;-65
2021/06/25 01:32:39;;;;;;;;;;;15.60;99.90;;;;;;5011713;28;20031;-65
2021/06/25 01:35:28;;;;;;;;;;;15.60;99.90;;;;;;5012737;28;19960;-66
2021/06/25 01:38:18;;;;;;;;;;;15.60;99.90;;;;;;5011356;28;19922;-65
2021/06/25 01:41:06;;;;;;;;;;;15.60;99.90;;;;;;5010222;28;20440;-64
2021/06/25 01:43:56;;;;;;;;;;;15.60;99.90;;;;;;5014452;28;19921;-65
2021/06/25 01:46:45;;;;;;;;;;;15.60;99.90;;;;;;5022320;28;19925;-66
2021/06/25 01:49:36;;;;;;;;;;;15.60;99.90;;;;;;5028594;28;20379;-66
2021/06/25 01:52:25;;;;;;;;;;;15.60;99.90;;;;;;5030705;28;19924;-66
2021/06/25 01:55:15;;;;;;;;;;;15.60;99.90;;;;;;5029571;28;19925;-65
2021/06/25 02:01:18;;;;;;;;;;;15.50;99.90;;;;;;5024154;28;19929;-65
2021/06/25 02:04:07;;;;;;;;;;;15.60;99.90;;;;;;5029444;28;19921;-66
2021/06/25 02:06:56;;;;;;;;;;;15.70;99.90;;;;;;5023444;28;20388;-65
2021/06/25 02:09:45;;;;;;;;;;;15.70;99.90;;;;;;5032723;28;20019;-65
2021/06/25 02:12:36;;;;;;;;;;;15.70;99.90;;;;;;5029377;28;19921;-66
2021/06/25 02:15:25;;;;;;;;;;;15.80;99.90;;;;;;5022594;28;20059;-66
2021/06/25 02:18:13;;;;;;;;;;;15.80;99.90;;;;;;5033616;28;19963;-66
2021/06/25 02:21:03;;;;;;;;;;;15.80;99.90;;;;;;5030473;28;19932;-67
2021/06/25 02:23:52;;;;;;;;;;;15.80;99.90;;;;;;5030632;28;19971;-69
2021/06/25 02:26:40;;;;;;;;;;;15.80;99.90;;;;;;5030262;28;19921;-66
2021/06/25 02:29:30;;;;;;;;;;;15.80;99.90;;;;;;5028501;28;19925;-66
2021/06/25 02:32:18;;;;;;;;;;;15.80;99.90;;;;;;5031282;28;20381;-66
2021/06/25 02:35:07;;;;;;;;;;;15.70;99.90;;;;;;5029113;28;20382;-66
2021/06/25 02:37:56;;;;;;;;;;;15.70;99.90;;;;;;5022240;28;20008;-66
2021/06/25 02:40:45;;;;;;;;;;;15.80;99.90;;;;;;5033611;28;19929;-65
2021/06/25 02:43:58;;;;;;;;;;;15.90;99.90;;;;;;5033730;28;19921;-66
2021/06/25 02:46:49;;;;;;;;;;;15.90;99.90;;;;;;5011342;28;19921;-66
2021/06/25 02:49:38;;;;;;;;;;;15.80;99.90;;;;;;5016927;28;19936;-66
2021/06/25 02:52:26;;;;;;;;;;;15.90;99.90;;;;;;5013110;28;19925;-66
2021/06/25 02:55:15;;;;;;;;;;;15.80;99.90;;;;;;5004335;28;19925;-66
2021/06/25 02:58:29;;;;;;;;;;;15.90;99.90;;;;;;5012153;28;19921;-66
2021/06/25 03:01:19;;;;;;;;;;;15.90;99.90;;;;;;4993108;28;20350;-67
2021/06/25 03:04:10;;;;;;;;;;;15.90;99.90;;;;;;5011641;28;19944;-66
2021/06/25 03:06:58;;;;;;;;;;;15.90;99.90;;;;;;5009418;28;19944;-66
2021/06/25 03:09:47;;;;;;;;;;;15.90;99.90;;;;;;5015829;28;19921;-66
2021/06/25 03:12:36;;;;;;;;;;;15.90;99.90;;;;;;5020656;28;20387;-66
2021/06/25 03:15:24;;;;;;;;;;;16.00;99.90;;;;;;5011154;28;19960;-66
2021/06/25 03:18:16;;;;;;;;;;;16.00;99.90;;;;;;5043348;28;19956;-66
2021/06/25 03:21:06;;;;;;;;;;;16.00;99.90;;;;;;5015248;28;20051;-65
2021/06/25 03:23:55;;;;;;;;;;;16.00;99.90;;;;;;5015002;28;19932;-68
2021/06/25 03:26:44;;;;;;;;;;;16.00;99.90;;;;;;5013327;28;19927;-65
2021/06/25 03:29:33;;;;;;;;;;;16.00;99.90;;;;;;5000678;28;20289;-66
2021/06/25 03:32:22;;;;;;;;;;;16.10;99.90;;;;;;4998162;28;19922;-65
2021/06/25 03:35:12;;;;;;;;;;;16.10;99.90;;;;;;5009912;28;20389;-69
2021/06/25 03:38:02;;;;;;;;;;;16.10;99.90;;;;;;5008079;28;19996;-67
2021/06/25 03:41:16;;;;;;;;;;;16.10;99.90;;;;;;5016231;28;19921;-66
2021/06/25 03:44:05;;;;;;;;;;;16.20;99.90;;;;;;5017001;28;19925;-65
2021/06/25 03:46:58;;;;;;;;;;;16.20;99.90;;;;;;5014782;28;19922;-68
2021/06/25 03:49:47;;;;;;;;;;;16.20;99.90;;;;;;5014838;28;19925;-66
2021/06/25 03:52:35;;;;;;;;;;;16.30;99.90;;;;;;5017825;28;19956;-69
2021/06/25 03:55:25;;;;;;;;;;;16.40;99.90;;;;;;5012787;28;19921;-66
2021/06/25 03:58:15;;;;;;;;;;;16.40;99.90;;;;;;5019330;28;19928;-66
2021/06/25 04:01:06;;;;;;;;;;;16.40;99.90;;;;;;5007855;28;20404;-66
2021/06/25 04:03:55;;;;;;;;;;;16.40;99.90;;;;;;5015123;28;20363;-66
2021/06/25 04:06:43;;;;;;;;;;;16.50;99.90;;;;;;5014050;28;20332;-66
2021/06/25 04:09:33;;;;;;;;;;;16.50;99.90;;;;;;5017003;28;19995;-65
2021/06/25 04:12:23;;;;;;;;;;;16.60;99.90;;;;;;5013475;28;19921;-66
2021/06/25 04:15:13;;;;;;;;;;;16.60;99.90;;;;;;5010694;28;19928;-66
2021/06/25 04:18:02;;;;;;;;;;;16.60;99.90;;;;;;5001756;28;19967;-67
2021/06/25 04:20:51;;;;;;;;;;;16.60;99.90;;;;;;5017045;28;19921;-66
2021/06/25 04:23:40;;;;;;;;;;;16.70;99.90;;;;;;5016705;28;20077;-67
2021/06/25 04:26:29;;;;;;;;;;;16.70;99.90;;;;;;5014810;28;19921;-66
2021/06/25 04:29:19;;;;;;;;;;;16.70;99.90;;;;;;5015592;28;20059;-66
2021/06/25 04:32:08;;;;;;;;;;;16.70;99.90;;;;;;4991976;28;19922;-67
2021/06/25 04:34:57;;;;;;;;;;;16.70;99.90;;;;;;4991379;28;20020;-66
2021/06/25 04:37:46;;;;;;;;;;;16.60;99.90;;;;;;4992685;28;19929;-66
2021/06/25 04:40:37;;;;;;;;;;;16.50;99.90;;;;;;4995512;28;19921;-67
2021/06/25 04:43:28;;;;;;;;;;;16.50;99.90;;;;;;4996171;28;19938;-67
2021/06/25 04:46:41;;;;;;;;;;;16.50;99.90;;;;;;5008176;28;19939;-66
2021/06/25 04:49:30;;;;;;;;;;;16.50;99.90;;;;;;5026703;28;19921;-66
2021/06/25 04:52:19;;;;;;;;;;;16.60;99.90;;;;;;5025538;28;19921;-66
2021/06/25 04:55:08;;;;;;;;;;;16.60;99.90;;;;;;5017713;28;19953;-66
2021/06/25 04:57:56;;;;;;;;;;;16.60;99.90;;;;;;5014580;28;19929;-66
2021/06/25 05:01:15;;;;;;;;;;;16.70;99.90;;;;;;5024211;28;19920;-66
2021/06/25 05:04:05;;;;;;;;;;;16.80;99.90;;;;;;5037856;28;19928;-67
2021/06/25 05:06:54;;;;;;;;;;;16.80;99.90;;;;;;5037530;28;19925;-67
2021/06/25 05:09:44;;;;;;;;;;;17.00;99.90;;;;;;5038228;28;19925;-67
2021/06/25 05:12:33;;;;;;;;;;;17.00;99.90;;;;;;5034360;28;19927;-70
2021/06/25 05:15:21;;;;;;;;;;;17.10;99.90;;;;;;5016746;28;19943;-67
2021/06/25 05:18:11;;;;;;;;;;;17.20;99.90;;;;;;5036359;28;20000;-67
2021/06/25 05:21:21;;;;;;;;;;;17.30;99.90;;;;;;5037178;28;20254;-66
2021/06/25 05:24:10;;;;;;;;;;;17.40;99.90;;;;;;5035200;28;19928;-66
2021/06/25 05:26:59;;;;;;;;;;;17.60;99.90;;;;;;5038984;28;19960;-68
2021/06/25 05:29:49;;;;;;;;;;;17.80;99.90;;;;;;5033693;28;19929;-67
2021/06/25 05:32:38;;;;;;;;;;;18.00;99.90;;;;;;5039905;28;20446;-66
2021/06/25 05:35:30;;;;;;;;;;;18.00;99.90;;;;;;5042098;28;19956;-67
2021/06/25 05:38:21;;;;;;;;;;;17.90;99.90;;;;;;5025567;28;19968;-67
2021/06/25 05:41:12;;;;;;;;;;;17.80;99.90;;;;;;5023693;28;20020;-68
2021/06/25 05:44:01;;;;;;;;;;;17.70;99.90;;;;;;5034024;28;19927;-67
2021/06/25 05:46:50;;;;;;;;;;;17.60;99.90;;;;;;5032748;28;19978;-67
2021/06/25 05:49:40;;;;;;;;;;;17.50;99.90;;;;;;5039320;28;19951;-67
2021/06/25 05:52:29;;;;;;;;;;;17.60;99.90;;;;;;5040127;28;20018;-67
2021/06/25 05:55:19;;;;;;;;;;;17.60;99.90;;;;;;5025951;28;20022;-67
2021/06/25 05:58:14;;;;;;;;;;;17.60;99.90;;;;;;5038206;28;19936;-67
2021/06/25 06:01:04;;;;;;;;;;;17.50;99.90;;;;;;5035884;28;19925;-67
2021/06/25 06:03:53;;;;;;;;;;;17.50;99.90;;;;;;5041202;28;20042;-67
2021/06/25 06:06:41;;;;;;;;;;;17.50;99.90;;;;;;5034103;28;19925;-66
2021/06/25 06:09:30;;;;;;;;;;;17.60;99.90;;;;;;5047726;28;19925;-67
2021/06/25 06:12:21;;;;;;;;;;;17.70;99.90;;;;;;5038129;28;19921;-67
2021/06/25 06:15:10;;;;;;;;;;;17.80;99.90;;;;;;5023285;28;20266;-67
2021/06/25 06:18:01;;;;;;;;;;;17.90;99.90;;;;;;5032149;28;19976;-66
2021/06/25 06:20:49;;;;;;;;;;;18.10;99.90;;;;;;5036246;28;19921;-66
2021/06/25 06:33:01;;;;;;;;;;;18.50;99.90;;;;;;5031825;28;19929;-66
2021/06/25 06:35:51;;;;;;;;;;;18.40;99.90;;;;;;5033628;28;19933;-66
2021/06/25 06:38:40;;;;;;;;;;;18.30;99.90;;;;;;5031673;28;19928;-67
2021/06/25 06:41:32;;;;;;;;;;;18.40;99.90;;;;;;5026633;28;19930;-67
2021/06/25 06:44:44;;;;;;;;;;;18.70;99.90;;;;;;5031090;28;19921;-66
2021/06/25 06:47:35;;;;;;;;;;;18.80;99.90;;;;;;5028899;28;19935;-66
2021/06/25 06:50:23;;;;;;;;;;;18.50;99.90;;;;;;5027737;28;19922;-66
2021/06/25 06:53:12;;;;;;;;;;;18.30;99.90;;;;;;5032877;28;20004;-66
2021/06/25 06:56:01;;;;;;;;;;;18.30;99.90;;;;;;5032755;28;20007;-67
2021/06/25 06:58:51;;;;;;;;;;;18.30;99.90;;;;;;5029733;28;19921;-67
2021/06/25 07:02:05;;;;;;;;;;;18.20;99.90;;;;;;5025909;28;19921;-69
2021/06/25 07:05:03;;;;;;;;;;;18.30;99.90;;;;;;5033488;28;20273;-67
2021/06/25 07:07:51;;;;;;;;;;;18.50;99.90;;;;;;5034158;28;19960;-66
2021/06/25 07:10:40;;;;;;;;;;;18.40;99.90;;;;;;5017614;28;20333;-67
2021/06/25 07:13:31;;;;;;;;;;;18.40;99.90;;;;;;5017080;28;20257;-66
2021/06/25 07:16:20;;;;;;;;;;;18.40;99.90;;;;;;5028788;28;19927;-68
2021/06/25 07:19:10;;;;;;;;;;;18.20;99.90;;;;;;5032982;28;20079;-67
2021/06/25 07:22:00;;;;;;;;;;;18.20;99.90;;;;;;5032668;28;19999;-67
2021/06/25 07:24:49;;;;;;;;;;;18.20;99.90;;;;;;5021069;28;20040;-67
2021/06/25 07:27:38;;;;;;;;;;;18.20;99.90;;;;;;5030267;28;19928;-67
2021/06/25 07:30:26;;;;;;;;;;;18.20;99.90;;;;;;5029077;28;19922;-67
2021/06/25 07:33:16;;;;;;;;;;;18.30;99.90;;;;;;5043065;28;19921;-69
2021/06/25 07:36:05;;;;;;;;;;;18.30;99.90;;;;;;5035114;28;19932;-67
2021/06/25 07:39:18;;;;;;;;;;;18.50;99.90;;;;;;5020366;28;19943;-67
2021/06/25 07:42:09;;;;;;;;;;;18.70;99.90;;;;;;5034803;28;19959;-66
2021/06/25 07:44:59;;;;;;;;;;;19.00;99.90;;;;;;5033285;28;20362;-67
2021/06/25 07:47:47;;;;;;;;;;;19.70;99.90;;;;;;5027642;28;20342;-70
2021/06/25 07:50:36;;;;;;;;;;;20.40;99.90;;;;;;5028859;28;19921;-67
2021/06/25 07:53:25;;;;;;;;;;;20.50;99.90;;;;;;5032798;28;19921;-67
2021/06/25 07:56:14;;;;;;;;;;;20.60;99.90;;;;;;5014554;28;20269;-66
2021/06/25 07:59:05;;;;;;;;;;;20.50;99.90;;;;;;5028620;28;19930;-67
2021/06/25 08:01:53;;;;;;;;;;;19.90;99.90;;;;;;5020442;28;19928;-66
2021/06/25 08:04:45;;;;;;;;;;;19.50;99.90;;;;;;5032840;28;19925;-67
2021/06/25 08:07:34;;;;;;;;;;;18.90;99.90;;;;;;5034824;28;19940;-67
2021/06/25 08:10:22;;;;;;;;;;;18.50;99.90;;;;;;5047616;28;20313;-66
2021/06/25 08:13:11;;;;;;;;;;;18.40;99.90;;;;;;5049606;28;19920;-67
2021/06/25 08:16:02;;;;;;;;;;;18.30;99.90;;;;;;5026999;28;19929;-67
2021/06/25 08:18:56;;;;;;;;;;;18.40;99.90;;;;;;5045526;28;19920;-68
2021/06/25 08:21:45;;;;;;;;;;;18.60;99.90;;;;;;5025206;28;19928;-67
2021/06/25 08:24:34;;;;;;;;;;;18.90;99.90;;;;;;5020988;28;19929;-67
2021/06/25 08:27:24;;;;;;;;;;;19.50;99.90;;;;;;5036198;28;19948;-67
2021/06/25 08:30:13;;;;;;;;;;;19.90;99.90;;;;;;5020830;28;20455;-66
2021/06/25 08:33:03;;;;;;;;;;;20.50;99.90;;;;;;5017394;28;19921;-67
2021/06/25 08:35:52;;;;;;;;;;;20.80;99.90;;;;;;5017844;28;19945;-67
2021/06/25 08:38:41;;;;;;;;;;;21.00;99.90;;;;;;5022211;28;19928;-67
2021/06/25 08:44:43;;;;;;;;;;;21.40;99.90;;;;;;5014854;28;20015;-67
2021/06/25 08:47:32;;;;;;;;;;;22.10;99.90;;;;;;5032872;28;19921;-68
2021/06/25 08:50:24;;;;;;;;;;;23.30;99.90;;;;;;5035528;28;19925;-67
2021/06/25 08:53:13;;;;;;;;;;;24.10;99.90;;;;;;5020490;28;19927;-67
2021/06/25 08:56:02;;;;;;;;;;;24.20;99.90;;;;;;5040646;28;19925;-66
2021/06/25 09:02:04;;;;;;;;;;;21.90;99.90;;;;;;5024343;28;19991;-67
2021/06/25 09:04:53;;;;;;;;;;;21.40;99.90;;;;;;5049959;28;20371;-66
2021/06/25 09:07:44;;;;;;;;;;;21.70;99.90;;;;;;5034383;28;20019;-66
2021/06/25 09:10:36;;;;;;;;;;;21.80;99.90;;;;;;5030847;28;19920;-67
2021/06/25 09:13:31;;;;;;;;;;;24.00;99.90;;;;;;5037004;28;19921;-67
2021/06/25 09:16:21;;;;;;;;;;;27.40;98.80;;;;;;5017786;28;19929;-68
2021/06/25 09:19:14;;;;;;;;;;;26.30;98.40;;;;;;5009483;28;19929;-67
2021/06/25 09:22:05;;;;;;;;;;;25.10;99.90;;;;;;5011815;28;19960;-66
2021/06/25 09:25:07;;;;;;;;;;;23.90;99.90;;;;;;5008375;28;19922;-65
2021/06/25 09:27:57;;;;;;;;;;;23.50;99.90;;;;;;5011143;28;20015;-66
2021/06/25 09:30:46;;;;;;;;;;;24.30;99.90;;;;;;5008119;28;19932;-66
2021/06/25 09:33:42;;;;;;;;;;;26.00;99.80;;;;;;5031575;28;19921;-67
2021/06/25 09:36:35;;;;;;;;;;;28.00;93.70;;;;;;5027353;28;19932;-67
2021/06/25 09:39:27;;;;;;;;;;;28.40;94.00;;;;;;5032313;28;19925;-65
2021/06/25 09:42:20;;;;;;;;;;;26.50;95.30;;;;;;5031222;28;19928;-65
2021/06/25 09:45:10;;;;;;;;;;;24.80;97.80;;;;;;5012803;28;19932;-67
2021/06/25 09:47:58;;;;;;;;;;;24.30;98.80;;;;;;5011782;28;19932;-66
2021/06/25 09:50:47;;;;;;;;;;;24.00;99.00;;;;;;5012988;28;19932;-65
2021/06/25 09:53:36;;;;;;;;;;;23.70;99.90;;;;;;5012063;28;19921;-65
2021/06/25 09:56:25;;;;;;;;;;;23.40;99.90;;;;;;5014292;28;20395;-65
2021/06/25 09:59:22;;;;;;;;;;;22.70;99.90;;;;;;5013701;28;20652;-65
2021/06/25 10:02:35;;;;;;;;;;;22.40;99.90;;;;;;5009779;28;20375;-66
2021/06/25 10:05:28;;;;;;;;;;;22.40;99.90;;;;;;5007420;28;20354;-65
2021/06/25 10:08:18;;;;;;;;;;;22.00;99.90;;;;;;5014750;28;19925;-65
2021/06/25 10:11:08;;;;;;;;;;;21.50;99.90;;;;;;5006281;28;19956;-65
2021/06/25 10:13:59;;;;;;;;;;;22.10;99.90;;;;;;5015048;28;20223;-67
2021/06/25 10:16:50;;;;;;;;;;;22.60;99.90;;;;;;5007709;28;20407;-66
2021/06/25 10:19:39;;;;;;;;;;;22.90;99.90;;;;;;5016421;28;20052;-66
2021/06/25 10:25:42;;;;;;;;;;;24.90;99.10;;;;;;5017329;28;20090;-66
2021/06/25 10:28:30;;;;;;;;;;;25.20;97.90;;;;;;5020643;28;19929;-66
2021/06/25 10:31:22;;;;;;;;;;;26.50;97.00;;;;;;5004777;28;19925;-66
2021/06/25 10:34:13;;;;;;;;;;;25.30;96.80;;;;;;5017212;28;19988;-66
2021/06/25 10:37:29;;;;;;;;;;;24.50;98.70;;;;;;5019304;28;19984;-67
2021/06/25 10:40:19;;;;;;;;;;;23.90;99.90;;;;;;5013278;28;20044;-66
2021/06/25 10:43:11;;;;;;;;;;;23.20;99.90;;;;;;5015517;28;19960;-65
2021/06/25 10:46:00;;;;;;;;;;;22.40;99.90;;;;;;5013852;28;20026;-66
2021/06/25 10:48:52;;;;;;;;;;;22.10;99.90;;;;;;5004039;28;20277;-66
2021/06/25 10:51:43;;;;;;;;;;;22.00;99.90;;;;;;5004543;28;20389;-64
2021/06/25 10:54:32;;;;;;;;;;;22.20;99.90;;;;;;5006655;28;20015;-65
2021/06/25 10:57:22;;;;;;;;;;;22.50;99.90;;;;;;5016499;28;19980;-65
2021/06/25 11:00:11;;;;;;;;;;;23.60;99.90;;;;;;5004189;28;19928;-66
2021/06/25 11:02:59;;;;;;;;;;;23.90;99.90;;;;;;5026629;28;19940;-68
2021/06/25 11:05:49;;;;;;;;;;;24.90;99.00;;;;;;5032003;28;19930;-68
2021/06/25 11:09:00;;;;;;;;;;;25.60;97.30;;;;;;5033806;28;19975;-71
2021/06/25 11:11:50;;;;;;;;;;;25.30;97.50;;;;;;5032807;28;19920;-66
2021/06/25 11:14:39;;;;;;;;;;;24.50;97.90;;;;;;5037695;28;19921;-67
2021/06/25 11:17:47;;;;;;;;;;;24.30;98.50;;;;;;5035031;28;19932;-67
2021/06/25 11:20:36;;;;;;;;;;;24.00;98.40;;;;;;5029704;28;19967;-68
2021/06/25 11:23:26;;;;;;;;;;;24.00;98.70;;;;;;5039081;28;19920;-68
2021/06/25 11:26:26;;;;;;;;;;;24.00;99.20;;;;;;5045846;28;20284;-67
2021/06/25 11:29:14;;;;;;;;;;;24.20;99.30;;;;;;5024667;28;19931;-67
2021/06/25 11:32:09;;;;;;;;;;;24.30;98.90;;;;;;5028423;28;19920;-67
2021/06/25 11:35:22;;;;;;;;;;;24.40;99.50;;;;;;5040077;28;20619;-68
2021/06/25 11:38:11;;;;;;;;;;;24.40;99.00;;;;;;5035326;28;19921;-67
2021/06/25 11:41:01;;;;;;;;;;;23.90;99.50;;;;;;5030683;28;19922;-67
2021/06/25 11:43:51;;;;;;;;;;;23.90;99.90;;;;;;5037822;28;19935;-67
2021/06/25 11:46:42;;;;;;;;;;;23.80;99.90;;;;;;5020640;28;20374;-68
2021/06/25 11:49:37;;;;;;;;;;;23.60;99.90;;;;;;5027244;28;19932;-67
2021/06/25 11:52:27;;;;;;;;;;;23.00;99.90;;;;;;5024809;28;19926;-67
2021/06/25 11:55:16;;;;;;;;;;;22.90;99.90;;;;;;5021309;28;20289;-67
2021/06/25 11:58:30;;;;;;;;;;;22.60;99.90;;;;;;5014675;28;20331;-67
2021/06/25 12:01:20;;;;;;;;;;;22.30;99.90;;;;;;5019318;28;19921;-66
2021/06/25 12:04:09;;;;;;;;;;;22.00;99.90;;;;;;5024501;28;19921;-68
2021/06/25 12:07:00;;;;;;;;;;;22.20;99.90;;;;;;5034278;28;19921;-67
2021/06/25 12:09:50;;;;;;;;;;;22.50;99.90;;;;;;5032742;28;20378;-67
2021/06/25 12:12:39;;;;;;;;;;;22.90;99.90;;;;;;5022696;28;19925;-66
2021/06/25 12:15:28;;;;;;;;;;;23.10;99.90;;;;;;5020823;28;19922;-67
2021/06/25 12:18:20;;;;;;;;;;;23.30;99.90;;;;;;5030803;28;19931;-66
2021/06/25 12:21:11;;;;;;;;;;;23.60;98.90;;;;;;5036459;28;20016;-68
2021/06/25 12:24:00;;;;;;;;;;;24.20;98.90;;;;;;5048404;28;20031;-68
2021/06/25 12:26:49;;;;;;;;;;;24.70;98.40;;;;;;5034349;28;20393;-68
2021/06/25 12:29:37;;;;;;;;;;;24.80;98.40;;;;;;5031674;28;19997;-67
2021/06/25 12:32:26;;;;;;;;;;;24.00;98.70;;;;;;5028142;28;19940;-69
2021/06/25 12:35:44;;;;;;;;;;;23.80;99.90;;;;;;5035637;28;20000;-67
2021/06/25 12:38:34;;;;;;;;;;;23.20;99.90;;;;;;5034062;28;20269;-67
2021/06/25 12:41:23;;;;;;;;;;;22.50;99.90;;;;;;5031795;28;20075;-67
2021/06/25 12:44:13;;;;;;;;;;;22.00;99.90;;;;;;5029247;28;19922;-68
2021/06/25 12:47:03;;;;;;;;;;;21.80;99.90;;;;;;5023881;28;19927;-67
2021/06/25 12:49:53;;;;;;;;;;;21.90;99.90;;;;;;5031388;28;20316;-67
2021/06/25 12:52:46;;;;;;;;;;;22.10;99.90;;;;;;5027199;28;19921;-67
2021/06/25 12:55:34;;;;;;;;;;;22.40;99.90;;;;;;5026952;28;19927;-68
2021/06/25 12:58:25;;;;;;;;;;;22.50;99.90;;;;;;5028065;28;19920;-70
2021/06/25 13:01:14;;;;;;;;;;;22.50;99.90;;;;;;5032770;28;19928;-68
2021/06/25 13:04:03;;;;;;;;;;;22.60;99.90;;;;;;5040692;28;19981;-68
2021/06/25 13:06:52;;;;;;;;;;;22.70;99.90;;;;;;5031922;28;19921;-68
2021/06/25 13:09:43;;;;;;;;;;;22.70;99.90;;;;;;5031924;28;19928;-66
2021/06/25 13:12:36;;;;;;;;;;;22.50;99.90;;;;;;5031028;28;19921;-67
2021/06/25 13:15:25;;;;;;;;;;;22.40;99.90;;;;;;5018330;28;20019;-67
2021/06/25 13:18:15;;;;;;;;;;;22.60;99.90;;;;;;5032064;28;20120;-68
2021/06/25 13:21:31;;;;;;;;;;;23.00;99.90;;;;;;5031213;28;19944;-67
2021/06/25 13:24:27;;;;;;;;;;;23.40;99.90;;;;;;5030549;28;20049;-66
2021/06/25 13:27:17;;;;;;;;;;;23.90;99.90;;;;;;5022913;28;20014;-67
2021/06/25 13:30:14;;;;;;;;;;;24.00;99.90;;;;;;5024275;28;20067;-66
2021/06/25 13:33:08;;;;;;;;;;;24.10;99.90;;;;;;5016453;28;19921;-67
2021/06/25 13:35:57;;;;;;;;;;;23.70;99.90;;;;;;5026257;28;19921;-67
2021/06/25 13:38:46;;;;;;;;;;;24.10;99.90;;;;;;5000018;28;20420;-66
2021/06/25 13:44:52;;;;;;;;;;;24.20;99.70;;;;;;5019662;28;19925;-67
2021/06/25 13:47:42;;;;;;;;;;;24.20;98.90;;;;;;5008598;28;20063;-66
2021/06/25 13:50:43;;;;;;;;;;;24.50;99.90;;;;;;5023701;28;19924;-67
2021/06/25 13:53:33;;;;;;;;;;;24.50;99.50;;;;;;5015855;28;19921;-67
2021/06/25 13:56:24;;;;;;;;;;;24.50;99.60;;;;;;5022026;28;19991;-66
2021/06/25 13:59:13;;;;;;;;;;;24.20;99.90;;;;;;5023682;28;20371;-66
2021/06/25 14:02:03;;;;;;;;;;;23.70;99.90;;;;;;5018969;28;19925;-66
2021/06/25 14:05:18;;;;;;;;;;;23.50;99.90;;;;;;5032684;28;19996;-66
2021/06/25 14:08:10;;;;;;;;;;;23.60;99.90;;;;;;5033097;28;19921;-66
2021/06/25 14:10:58;;;;;;;;;;;23.60;99.90;;;;;;5032084;28;19936;-66
2021/06/25 14:13:49;;;;;;;;;;;23.20;99.90;;;;;;5033573;28;19921;-67
2021/06/25 14:16:38;;;;;;;;;;;23.10;99.90;;;;;;5023355;28;20007;-66
2021/06/25 14:19:28;;;;;;;;;;;23.20;99.90;;;;;;5032881;28;19943;-67
2021/06/25 14:22:17;;;;;;;;;;;23.40;99.90;;;;;;5032862;28;19926;-66
2021/06/25 14:25:06;;;;;;;;;;;23.10;99.90;;;;;;5030841;28;19925;-68
2021/06/25 14:27:55;;;;;;;;;;;22.90;99.90;;;;;;5032448;28;19925;-67
2021/06/25 14:30:43;;;;;;;;;;;22.70;99.90;;;;;;5052210;28;19998;-66
2021/06/25 14:33:32;;;;;;;;;;;22.60;99.90;;;;;;5034033;28;20289;-66
2021/06/25 14:36:24;;;;;;;;;;;22.70;99.90;;;;;;5035649;28;20106;-67
2021/06/25 14:39:14;;;;;;;;;;;22.80;99.90;;;;;;5036032;28;19959;-67
2021/06/25 14:42:14;;;;;;;;;;;22.30;99.90;;;;;;5032428;28;20059;-66
2021/06/25 14:45:04;;;;;;;;;;;21.80;99.90;;;;;;5039875;28;19982;-67
2021/06/25 14:47:52;;;;;;;;;;;21.80;99.90;;;;;;5044802;28;20407;-67
2021/06/25 14:50:41;;;;;;;;;;;21.90;99.90;;;;;;5050688;28;20267;-66
2021/06/25 14:53:31;;;;;;;;;;;22.10;99.90;;;;;;5037537;28;19977;-68
2021/06/25 14:56:20;;;;;;;;;;;22.40;99.90;;;;;;5049003;28;20246;-69
2021/06/25 14:59:09;;;;;;;;;;;22.10;99.90;;;;;;5051564;28;19928;-67
2021/06/25 15:01:58;;;;;;;;;;;21.90;99.90;;;;;;5044368;28;19927;-67
2021/06/25 15:04:46;;;;;;;;;;;21.80;99.90;;;;;;5030215;28;19998;-67
2021/06/25 15:07:35;;;;;;;;;;;21.50;99.90;;;;;;5051988;28;19995;-67
2021/06/25 15:10:25;;;;;;;;;;;21.70;99.90;;;;;;5049841;28;20345;-66
2021/06/25 15:13:15;;;;;;;;;;;21.90;99.90;;;;;;5042920;28;19920;-67
2021/06/25 15:16:05;;;;;;;;;;;22.00;99.90;;;;;;5033069;28;19941;-66
2021/06/25 15:18:53;;;;;;;;;;;22.00;99.90;;;;;;5016051;28;19979;-67
2021/06/25 15:21:42;;;;;;;;;;;21.80;99.90;;;;;;5017984;28;19925;-67
2021/06/25 15:24:30;;;;;;;;;;;21.70;99.90;;;;;;5030614;28;20317;-69
2021/06/25 15:27:20;;;;;;;;;;;21.80;99.90;;;;;;5010510;28;20326;-66
2021/06/25 15:30:10;;;;;;;;;;;21.80;99.90;;;;;;5003962;28;19928;-66
2021/06/25 15:32:59;;;;;;;;;;;21.50;99.90;;;;;;5030082;28;20060;-66
2021/06/25 15:35:49;;;;;;;;;;;21.50;99.90;;;;;;5027825;28;20337;-65
2021/06/25 15:38:38;;;;;;;;;;;21.50;99.90;;;;;;5025338;28;19921;-66
2021/06/25 15:41:28;;;;;;;;;;;21.60;99.90;;;;;;5030287;28;20288;-66
2021/06/25 15:44:18;;;;;;;;;;;21.60;99.90;;;;;;5024355;28;19973;-67
2021/06/25 15:47:07;;;;;;;;;;;21.70;99.90;;;;;;5018885;28;19929;-66
2021/06/25 15:49:56;;;;;;;;;;;21.70;99.90;;;;;;5040733;28;20133;-67
2021/06/25 15:52:45;;;;;;;;;;;21.60;99.90;;;;;;5045025;28;20371;-67
2021/06/25 15:55:35;;;;;;;;;;;21.50;99.90;;;;;;5037675;28;20010;-66
2021/06/25 15:58:24;;;;;;;;;;;21.40;99.90;;;;;;5023145;28;19960;-66
2021/06/25 16:01:14;;;;;;;;;;;21.30;99.90;;;;;;5009389;28;19949;-66
2021/06/25 16:04:03;;;;;;;;;;;21.20;99.90;;;;;;5050328;28;19921;-66
2021/06/25 16:06:51;;;;;;;;;;;20.90;99.90;;;;;;5026618;28;20138;-66
2021/06/25 16:09:44;;;;;;;;;;;20.40;99.90;;;;;;5021780;28;19921;-66
2021/06/25 16:12:33;;;;;;;;;;;20.00;99.90;;;;;;5032083;28;19921;-66
2021/06/25 16:15:22;;;;;;;;;;;19.60;99.90;;;;;;5023940;28;21849;-66
2021/06/25 16:18:12;;;;;;;;;;;19.20;99.90;;;;;;5034466;28;20075;-66
2021/06/25 16:21:02;;;;;;;;;;;18.80;99.90;;;;;;5032898;28;19928;-66
2021/06/25 16:23:50;;;;;;;;;;;18.60;99.90;;;;;;5045368;28;19928;-66
2021/06/25 16:26:39;;;;;;;;;;;18.40;99.90;;;;;;5034931;28;19921;-66
2021/06/25 16:29:28;;;;;;;;;;;18.30;99.90;;;;;;5031141;28;20012;-66
2021/06/25 16:32:16;;;;;;;;;;;18.30;99.90;;;;;;5025430;28;19921;-67
2021/06/25 16:35:07;;;;;;;;;;;18.10;99.90;;;;;;5035264;28;19921;-66
2021/06/25 16:37:56;;;;;;;;;;;18.00;99.90;;;;;;5031316;28;19925;-66
2021/06/25 16:40:45;;;;;;;;;;;17.90;99.90;;;;;;5034563;28;19921;-66
2021/06/25 16:43:34;;;;;;;;;;;17.80;99.90;;;;;;5031937;28;19928;-66
2021/06/25 16:46:47;;;;;;;;;;;17.80;99.90;;;;;;5006737;28;20004;-66
2021/06/25 16:49:36;;;;;;;;;;;17.80;99.90;;;;;;5014176;28;20334;-67
2021/06/25 16:52:27;;;;;;;;;;;17.80;99.90;;;;;;5007215;28;19922;-66
2021/06/25 16:55:16;;;;;;;;;;;17.70;99.90;;;;;;5005058;28;19928;-67
2021/06/25 16:58:20;;;;;;;;;;;17.70;99.90;;;;;;5010632;28;19925;-65
2021/06/25 17:01:09;;;;;;;;;;;17.80;99.90;;;;;;5009431;28;20030;-66